createdAt,value
2023-02-27T00:01:20.293Z,100813.06
2023-02-27T00:03:47.326Z,100802.06
2023-02-27T00:06:14.411Z,100816.84
2023-02-27T00:08:41.471Z,100818.56
2023-02-27T00:11:08.518Z,100815.66
2023-02-27T00:13:36.405Z,100824.75
2023-02-27T00:16:03.762Z,100827.28
2023-02-27T00:18:30.889Z,100832.59
2023-02-27T00:20:57.886Z,100829.00
2023-02-27T00:23:25.071Z,100830.78
2023-02-27T00:25:52.478Z,100831.38
2023-02-27T00:28:19.491Z,100833.72
2023-02-27T00:30:46.604Z,100824.25
2023-02-27T00:33:14.129Z,100835.25
2023-02-27T00:35:41.324Z,100827.56
2023-02-27T00:38:08.342Z,100833.91
2023-02-27T00:40:38.073Z,100831.53
2023-02-27T00:43:05.508Z,100829.19
2023-02-27T00:45:32.600Z,100825.38
2023-02-27T00:47:59.605Z,100833.66
2023-02-27T00:50:26.648Z,100848.31
2023-02-27T00:52:53.641Z,100845.00
2023-02-27T00:55:20.677Z,100849.41
2023-02-27T00:57:47.807Z,100838.78
2023-02-27T01:00:15.464Z,100852.41
2023-02-27T01:02:42.653Z,100840.84
2023-02-27T01:05:10.882Z,100836.66
2023-02-27T01:07:38.075Z,100825.75
2023-02-27T01:10:07.440Z,100843.53
2023-02-27T01:12:34.553Z,100848.44
2023-02-27T01:15:01.603Z,100845.16
2023-02-27T01:17:28.665Z,100842.44
2023-02-27T01:19:55.675Z,100845.16
2023-02-27T01:22:22.718Z,100848.38
2023-02-27T01:24:49.729Z,100842.00
2023-02-27T01:27:16.929Z,100848.25
2023-02-27T01:29:44.060Z,100839.03
2023-02-27T01:32:11.188Z,100845.06
2023-02-27T01:34:38.363Z,100857.34
2023-02-27T01:37:05.346Z,100854.75
2023-02-27T01:39:33.165Z,100852.34
2023-02-27T01:42:01.064Z,100857.75
2023-02-27T01:44:31.151Z,100852.53
2023-02-27T01:46:58.272Z,100861.94
2023-02-27T01:49:32.865Z,100857.41
2023-02-27T01:56:16.734Z,100865.25
2023-02-27T01:58:45.944Z,100868.09
2023-02-27T02:01:23.201Z,100867.81
2023-02-27T02:04:06.762Z,100867.41
2023-02-27T02:06:39.207Z,100863.91
2023-02-27T02:09:07.674Z,100876.81
2023-02-27T02:11:34.691Z,100863.44
2023-02-27T02:14:03.412Z,100867.75
2023-02-27T02:16:54.831Z,100876.84
2023-02-27T02:20:01.450Z,100873.63
2023-02-27T02:23:07.580Z,100873.88
2023-02-27T02:26:27.801Z,100880.13
2023-02-27T02:29:48.521Z,100884.44
2023-02-27T02:32:54.960Z,100880.13
2023-02-27T02:36:22.349Z,100892.38
2023-02-27T02:39:48.102Z,100895.00
2023-02-27T02:42:31.833Z,100895.88
2023-02-27T02:45:48.978Z,100894.41
2023-02-27T02:48:28.004Z,100903.84
2023-02-27T02:51:51.351Z,100907.09
2023-02-27T02:54:34.609Z,100906.22
2023-02-27T02:57:27.712Z,100907.00
2023-02-27T03:00:06.287Z,100910.97
2023-02-27T03:02:46.755Z,100914.28
2023-02-27T03:05:32.970Z,100919.25
2023-02-27T03:08:08.253Z,100925.72
2023-02-27T03:10:59.708Z,100933.69
2023-02-27T03:14:05.533Z,100929.94
2023-02-27T03:16:42.034Z,100931.97
2023-02-27T03:19:18.222Z,100943.97
2023-02-27T03:22:00.205Z,100953.63
2023-02-27T03:24:35.853Z,100961.00
2023-02-27T03:27:05.574Z,100961.56
2023-02-27T03:29:40.800Z,100959.88
2023-02-27T03:32:20.975Z,100962.94
2023-02-27T03:34:48.196Z,100964.66
2023-02-27T03:37:30.855Z,100966.56
2023-02-27T03:40:41.728Z,100968.03
2023-02-27T03:44:01.158Z,100962.25
2023-02-27T03:46:28.785Z,100969.28
2023-02-27T03:48:55.923Z,100971.88
2023-02-27T03:51:25.473Z,100972.56
2023-02-27T03:54:09.841Z,100978.00
2023-02-27T03:56:53.202Z,100982.06
2023-02-27T03:59:20.600Z,100969.97
2023-02-27T04:01:48.014Z,100969.28
2023-02-27T04:04:17.632Z,100984.66
2023-02-27T04:07:22.696Z,100985.03
2023-02-27T04:10:41.141Z,100984.91
2023-02-27T04:13:47.642Z,100990.59
2023-02-27T04:16:46.773Z,100995.59
2023-02-27T04:19:57.936Z,101003.63
2023-02-27T04:22:36.286Z,100991.72
2023-02-27T04:25:48.100Z,101002.25
2023-02-27T04:28:40.505Z,100995.59
2023-02-27T04:31:31.276Z,100992.16
2023-02-27T04:34:21.394Z,101010.75
2023-02-27T04:37:13.424Z,101009.97
2023-02-27T04:40:06.299Z,101014.63
2023-02-27T04:42:38.918Z,101014.06
2023-02-27T04:45:11.524Z,101019.72
2023-02-27T04:47:51.642Z,101021.19
2023-02-27T04:50:29.996Z,101017.19
2023-02-27T04:53:11.889Z,101027.88
2023-02-27T04:55:57.184Z,101025.38
2023-02-27T04:58:35.087Z,101031.06
2023-02-27T05:01:09.485Z,101036.41
2023-02-27T05:03:48.115Z,101033.00
2023-02-27T05:06:19.535Z,101036.41
2023-02-27T05:09:20.575Z,101033.78
2023-02-27T05:11:53.081Z,101044.56
2023-02-27T05:14:25.301Z,101047.06
2023-02-27T05:17:08.041Z,101047.84
2023-02-27T05:19:41.291Z,101052.41
2023-02-27T05:22:36.844Z,101049.78
2023-02-27T05:25:21.167Z,101061.66
2023-02-27T05:28:18.495Z,101065.66
2023-02-27T05:31:15.351Z,101069.84
2023-02-27T05:33:54.627Z,101077.84
2023-02-27T05:36:32.064Z,101074.22
2023-02-27T05:39:04.617Z,101071.13
2023-02-27T05:41:45.371Z,101083.63
2023-02-27T05:44:18.965Z,101082.19
2023-02-27T05:47:13.018Z,101092.25
2023-02-27T05:49:56.641Z,101088.44
2023-02-27T05:52:26.826Z,101089.84
2023-02-27T05:55:13.734Z,101100.59
2023-02-27T05:57:57.914Z,101093.13
2023-02-27T06:00:44.336Z,101096.09
2023-02-27T06:03:12.504Z,101106.44
2023-02-27T06:05:43.095Z,101111.59
2023-02-27T06:08:11.470Z,101116.03
2023-02-27T06:10:38.770Z,101104.81
2023-02-27T06:13:05.883Z,101106.06
2023-02-27T06:15:33.026Z,101111.22
2023-02-27T06:18:00.130Z,101111.22
2023-02-27T06:20:27.387Z,101115.75
2023-02-27T06:22:54.452Z,101120.09
2023-02-27T06:25:22.159Z,101107.41
2023-02-27T06:27:49.698Z,101120.59
2023-02-27T06:30:17.258Z,101118.16
2023-02-27T06:32:44.333Z,101127.72
2023-02-27T06:35:11.552Z,101122.84
2023-02-27T06:37:39.009Z,101138.84
2023-02-27T06:40:14.226Z,101137.91
2023-02-27T06:42:45.531Z,101140.84
2023-02-27T06:45:14.588Z,101143.22
2023-02-27T06:47:42.940Z,101145.00
2023-02-27T06:50:12.506Z,101145.50
2023-02-27T06:52:40.827Z,101155.72
2023-02-27T06:55:09.271Z,101152.47
2023-02-27T06:57:36.338Z,101149.84
2023-02-27T07:00:07.047Z,101152.75
2023-02-27T07:02:34.191Z,101161.25
2023-02-27T07:05:01.259Z,101161.03
2023-02-27T07:07:37.963Z,101156.31
2023-02-27T07:10:14.039Z,101161.38
2023-02-27T07:12:41.326Z,101164.50
2023-02-27T07:15:11.491Z,101151.69
2023-02-27T07:17:38.702Z,101153.25
2023-02-27T07:20:08.944Z,101145.91
2023-02-27T07:22:36.602Z,101152.19
2023-02-27T07:25:05.059Z,101141.56
2023-02-27T07:27:32.707Z,101147.88
2023-02-27T07:30:00.418Z,101149.03
2023-02-27T07:32:28.173Z,101136.78
2023-02-27T07:34:55.332Z,101145.66
2023-02-27T07:37:22.800Z,101145.03
2023-02-27T07:39:50.663Z,101143.47
2023-02-27T07:42:17.807Z,101157.66
2023-02-27T07:44:44.906Z,101136.34
2023-02-27T07:47:11.975Z,101142.97
2023-02-27T07:49:39.089Z,101135.81
2023-02-27T07:52:07.798Z,101144.66
2023-02-27T07:54:35.754Z,101146.47
2023-02-27T07:57:03.640Z,101144.72
2023-02-27T07:59:30.809Z,101147.63
2023-02-27T08:01:58.046Z,101156.56
2023-02-27T08:04:25.154Z,101153.13
2023-02-27T08:06:52.329Z,101163.97
2023-02-27T08:09:19.390Z,101156.81
2023-02-27T08:11:48.912Z,101157.69
2023-02-27T08:14:16.347Z,101159.44
2023-02-27T08:16:43.662Z,101162.09
2023-02-27T08:19:14.456Z,101168.34
2023-02-27T08:21:42.017Z,101162.09
2023-02-27T08:24:09.288Z,101167.53
2023-02-27T08:26:36.446Z,101176.47
2023-02-27T08:29:03.861Z,101173.88
2023-02-27T08:31:31.061Z,101183.72
2023-02-27T08:34:09.452Z,101177.47
2023-02-27T08:36:38.073Z,101183.78
2023-02-27T08:39:06.586Z,101191.81
2023-02-27T08:41:34.160Z,101189.97
2023-02-27T08:44:01.345Z,101184.66
2023-02-27T08:46:28.967Z,101185.53
2023-02-27T08:48:56.247Z,101188.97
2023-02-27T08:51:23.302Z,101199.19
2023-02-27T08:53:50.428Z,101201.97
2023-02-27T08:56:17.473Z,101214.25
2023-02-27T08:58:44.604Z,101194.22
2023-02-27T09:01:11.699Z,101200.91
2023-02-27T09:03:38.849Z,101211.47
2023-02-27T09:06:06.188Z,101218.75
2023-02-27T09:08:33.302Z,101223.84
2023-02-27T09:11:00.629Z,101224.97
2023-02-27T09:13:28.756Z,101226.25
2023-02-27T09:15:56.325Z,101238.16
2023-02-27T09:18:23.804Z,101236.44
2023-02-27T09:20:53.711Z,101247.66
2023-02-27T09:23:20.839Z,101244.00
2023-02-27T09:25:48.120Z,101247.75
2023-02-27T09:28:15.917Z,101255.28
2023-02-27T09:30:43.049Z,101255.94
2023-02-27T09:33:10.321Z,101261.00
2023-02-27T09:35:38.050Z,101262.81
2023-02-27T09:38:05.588Z,101266.28
2023-02-27T09:40:39.629Z,101273.59
2023-02-27T09:43:22.180Z,101275.72
2023-02-27T09:45:54.751Z,101269.00
2023-02-27T09:48:36.239Z,101270.41
2023-02-27T09:51:04.432Z,101276.38
2023-02-27T09:53:41.426Z,101289.13
2023-02-27T09:56:20.829Z,101286.44
2023-02-27T09:59:23.946Z,101300.63
2023-02-27T10:01:56.810Z,101301.16
2023-02-27T10:05:04.194Z,101285.75
2023-02-27T10:07:49.201Z,101303.19
2023-02-27T10:10:47.103Z,101301.84
2023-02-27T10:13:55.762Z,101302.16
2023-02-27T10:16:24.343Z,101299.19
2023-02-27T10:19:12.949Z,101304.81
2023-02-27T10:21:49.655Z,101306.22
2023-02-27T10:24:34.333Z,101303.41
2023-02-27T10:27:05.871Z,101306.31
2023-02-27T10:29:36.720Z,101304.78
2023-02-27T10:32:07.727Z,101314.09
2023-02-27T10:34:35.874Z,101314.81
2023-02-27T10:37:05.646Z,101312.44
2023-02-27T10:39:52.403Z,101315.66
2023-02-27T10:42:20.075Z,101320.44
2023-02-27T10:44:53.644Z,101319.69
2023-02-27T10:47:26.010Z,101320.09
2023-02-27T10:49:54.645Z,101327.91
2023-02-27T10:52:22.029Z,101325.50
2023-02-27T10:54:49.240Z,101321.59
2023-02-27T10:57:33.605Z,101329.09
2023-02-27T11:00:09.690Z,101329.13
2023-02-27T11:02:41.946Z,101332.03
2023-02-27T11:05:35.540Z,101336.13
2023-02-27T11:08:35.560Z,101333.31
2023-02-27T11:11:10.601Z,101333.56
2023-02-27T11:13:41.848Z,101334.72
2023-02-27T11:16:23.680Z,101335.56
2023-02-27T11:18:54.585Z,101342.28
2023-02-27T11:21:28.880Z,101325.31
2023-02-27T11:24:18.005Z,101330.22
2023-02-27T11:27:03.720Z,101328.94
2023-02-27T11:29:31.716Z,101339.38
2023-02-27T11:32:14.430Z,101343.06
2023-02-27T11:34:50.001Z,101339.00
2023-02-27T11:37:36.915Z,101341.56
2023-02-27T11:40:19.472Z,101336.69
2023-02-27T11:42:52.128Z,101343.44
2023-02-27T11:46:13.205Z,101335.09
2023-02-27T11:48:37.506Z,101329.91
2023-02-27T11:51:10.470Z,101323.38
2023-02-27T11:54:06.082Z,101324.25
2023-02-27T11:56:45.452Z,101333.88
2023-02-27T11:59:14.927Z,101336.06
2023-02-27T12:02:12.760Z,101337.38
2023-02-27T12:04:55.913Z,101345.44
2023-02-27T12:07:41.544Z,101348.16
2023-02-27T12:10:22.959Z,101339.91
2023-02-27T12:13:06.667Z,101339.59
2023-02-27T12:16:00.610Z,101344.44
2023-02-27T12:18:40.070Z,101351.00
2023-02-27T12:21:49.226Z,101346.03
2023-02-27T12:24:44.075Z,101348.03
2023-02-27T12:27:25.697Z,101351.78
2023-02-27T12:30:15.104Z,101349.56
2023-02-27T12:33:11.872Z,101355.41
2023-02-27T12:35:43.161Z,101359.13
2023-02-27T12:38:17.410Z,101362.00
2023-02-27T12:41:11.397Z,101355.75
2023-02-27T12:43:56.773Z,101358.88
2023-02-27T12:46:29.013Z,101357.72
2023-02-27T12:49:13.236Z,101363.50
2023-02-27T12:52:29.938Z,101365.91
2023-02-27T12:55:23.714Z,101373.38
2023-02-27T12:58:22.304Z,101369.97
2023-02-27T13:01:31.549Z,101378.84
2023-02-27T13:04:11.098Z,101379.88
2023-02-27T13:07:04.941Z,101376.84
2023-02-27T13:09:37.372Z,101371.38
2023-02-27T13:12:26.951Z,101370.47
2023-02-27T13:15:34.380Z,101379.78
2023-02-27T13:18:49.673Z,101375.31
2023-02-27T13:21:26.442Z,101371.97
2023-02-27T13:24:26.339Z,101383.28
2023-02-27T13:27:13.494Z,101378.31
2023-02-27T13:29:47.715Z,101376.44
2023-02-27T13:32:56.550Z,101377.84
2023-02-27T13:35:38.888Z,101387.28
2023-02-27T13:38:34.073Z,101385.28
2023-02-27T13:41:27.973Z,101391.22
2023-02-27T13:44:31.597Z,101395.25
2023-02-27T13:47:33.163Z,101399.66
2023-02-27T13:50:23.176Z,101407.97
2023-02-27T13:52:50.865Z,101393.09
2023-02-27T13:55:37.787Z,101400.31
2023-02-27T13:58:05.961Z,101397.16
2023-02-27T14:00:37.940Z,101403.97
2023-02-27T14:03:27.705Z,101401.59
2023-02-27T14:06:01.006Z,101397.75
2023-02-27T14:08:37.592Z,101397.06
2023-02-27T14:11:30.827Z,101410.63
2023-02-27T14:14:00.486Z,101412.44
2023-02-27T14:16:44.111Z,101407.09
2023-02-27T14:19:19.569Z,101408.81
2023-02-27T14:22:24.597Z,101404.31
2023-02-27T14:25:16.075Z,101407.72
2023-02-27T14:27:57.088Z,101407.41
2023-02-27T14:30:44.366Z,101402.97
2023-02-27T14:33:37.659Z,101411.81
2023-02-27T14:36:15.978Z,101419.31
2023-02-27T14:38:43.365Z,101414.53
2023-02-27T14:41:41.497Z,101421.91
2023-02-27T14:44:24.512Z,101422.59
2023-02-27T14:46:54.878Z,101423.97
2023-02-27T14:49:34.648Z,101422.53
2023-02-27T14:52:29.798Z,101421.59
2023-02-27T14:55:33.789Z,101427.75
2023-02-27T14:58:21.644Z,101430.97
2023-02-27T15:01:03.487Z,101428.09
2023-02-27T15:03:37.910Z,101433.91
2023-02-27T15:06:46.027Z,101432.31
2023-02-27T15:09:48.015Z,101432.19
2023-02-27T15:12:21.552Z,101436.50
2023-02-27T15:14:58.104Z,101431.50
2023-02-27T15:17:36.201Z,101444.94
2023-02-27T15:20:30.204Z,101439.91
2023-02-27T15:23:03.000Z,101441.94
2023-02-27T15:25:39.276Z,101450.59
2023-02-27T15:28:24.448Z,101448.44
2023-02-27T15:30:55.803Z,101456.19
2023-02-27T15:33:34.365Z,101459.50
2023-02-27T15:36:01.919Z,101464.59
2023-02-27T15:38:38.086Z,101464.03
2023-02-27T15:41:05.631Z,101469.09
2023-02-27T15:43:33.396Z,101469.69
2023-02-27T15:46:01.005Z,101462.97
2023-02-27T15:48:29.517Z,101477.78
2023-02-27T15:51:03.424Z,101479.94
2023-02-27T15:53:34.347Z,101478.69
2023-02-27T15:56:09.528Z,101485.72
2023-02-27T15:59:00.225Z,101486.41
2023-02-27T16:01:32.523Z,101491.03
2023-02-27T16:04:07.094Z,101496.19
2023-02-27T16:06:41.420Z,101505.06
2023-02-27T16:09:34.712Z,101508.94
2023-02-27T16:12:33.266Z,101516.06
2023-02-27T16:15:36.351Z,101524.16
2023-02-27T16:18:08.023Z,101527.34
2023-02-27T16:20:48.044Z,101533.72
2023-02-27T16:23:31.965Z,101523.78
2023-02-27T16:26:31.544Z,101542.84
2023-02-27T16:29:06.428Z,101539.25
2023-02-27T16:31:40.924Z,101544.03
2023-02-27T16:34:16.522Z,101545.13
2023-02-27T16:36:57.722Z,101549.72
2023-02-27T16:39:25.747Z,101553.53
2023-02-27T16:41:54.171Z,101563.22
2023-02-27T16:44:22.645Z,101547.59
2023-02-27T16:46:50.914Z,101554.22
2023-02-27T16:49:23.062Z,101564.94
2023-02-27T16:51:51.241Z,101568.25
2023-02-27T16:54:19.846Z,101569.81
2023-02-27T16:56:49.037Z,101578.81
2023-02-27T16:59:39.286Z,101578.41
2023-02-27T17:02:13.340Z,101581.22
2023-02-27T17:04:44.398Z,101582.81
2023-02-27T17:07:16.225Z,101585.91
2023-02-27T17:09:47.368Z,101596.84
2023-02-27T17:12:14.520Z,101607.53
2023-02-27T17:14:41.615Z,101598.91
2023-02-27T17:17:10.989Z,101592.72
2023-02-27T17:19:38.369Z,101597.47
2023-02-27T17:22:05.651Z,101609.25
2023-02-27T17:24:32.936Z,101595.38
2023-02-27T17:27:00.143Z,101607.81
2023-02-27T17:29:27.230Z,101613.91
2023-02-27T17:31:54.409Z,101615.44
2023-02-27T17:34:21.481Z,101614.28
2023-02-27T17:36:50.116Z,101616.00
2023-02-27T17:39:17.508Z,101618.06
2023-02-27T17:41:45.292Z,101619.53
2023-02-27T17:44:13.208Z,101624.63
2023-02-27T17:46:41.800Z,101626.31
2023-02-27T17:49:09.621Z,101632.28
2023-02-27T17:51:37.130Z,101639.84
2023-02-27T17:54:05.942Z,101629.28
2023-02-27T17:56:35.597Z,101635.53
2023-02-27T17:59:04.101Z,101636.44
2023-02-27T18:01:31.206Z,101639.44
2023-02-27T18:03:58.348Z,101639.44
2023-02-27T18:06:25.955Z,101634.50
2023-02-27T18:08:53.259Z,101647.53
2023-02-27T18:11:21.945Z,101645.44
2023-02-27T18:13:50.528Z,101642.72
2023-02-27T18:16:19.483Z,101636.06
2023-02-27T18:18:46.538Z,101639.06
2023-02-27T18:21:20.783Z,101629.28
2023-02-27T18:23:49.245Z,101640.22
2023-02-27T18:26:30.564Z,101643.75
2023-02-27T18:29:06.242Z,101653.44
2023-02-27T18:31:37.286Z,101646.63
2023-02-27T18:34:04.638Z,101643.09
2023-02-27T18:36:32.664Z,101648.19
2023-02-27T18:39:00.755Z,101647.50
2023-02-27T18:41:29.300Z,101653.28
2023-02-27T18:43:56.513Z,101650.41
2023-02-27T18:46:23.832Z,101645.97
2023-02-27T18:48:51.560Z,101650.69
2023-02-27T18:51:18.907Z,101659.13
2023-02-27T18:53:49.538Z,101662.78
2023-02-27T18:56:20.785Z,101659.13
2023-02-27T18:58:49.641Z,101662.38
2023-02-27T19:01:32.120Z,101661.19
2023-02-27T19:04:05.138Z,101655.81
2023-02-27T19:06:42.254Z,101657.13
2023-02-27T19:09:12.718Z,101666.81
2023-02-27T19:11:40.221Z,101666.28
2023-02-27T19:14:11.081Z,101666.66
2023-02-27T19:16:38.506Z,101671.38
2023-02-27T19:19:06.346Z,101668.41
2023-02-27T19:21:34.078Z,101672.13
2023-02-27T19:24:02.063Z,101678.97
2023-02-27T19:26:31.848Z,101673.88
2023-02-27T19:28:58.947Z,101676.09
2023-02-27T19:31:26.555Z,101679.88
2023-02-27T19:33:53.662Z,101682.72
2023-02-27T19:36:23.154Z,101686.56
2023-02-27T19:38:50.609Z,101679.47
2023-02-27T19:41:19.899Z,101680.28
2023-02-27T19:43:48.008Z,101687.16
2023-02-27T19:46:25.219Z,101683.72
2023-02-27T19:48:54.283Z,101690.13
2023-02-27T19:51:21.711Z,101696.81
2023-02-27T19:53:49.147Z,101695.50
2023-02-27T19:56:20.747Z,101689.88
2023-02-27T19:58:48.771Z,101697.22
2023-02-27T20:01:31.540Z,101693.84
2023-02-27T20:04:00.116Z,101701.41
2023-02-27T20:06:30.872Z,101691.59
2023-02-27T20:08:59.439Z,101705.59
2023-02-27T20:11:31.597Z,101708.25
2023-02-27T20:13:59.051Z,101714.56
2023-02-27T20:16:29.046Z,101706.75
2023-02-27T20:18:56.790Z,101704.88
2023-02-27T20:21:24.889Z,101712.69
2023-02-27T20:23:52.555Z,101711.97
2023-02-27T20:26:32.093Z,101708.88
2023-02-27T20:29:15.179Z,101705.94
2023-02-27T20:31:46.404Z,101705.94
2023-02-27T20:34:22.100Z,101708.59
2023-02-27T20:36:50.685Z,101715.50
2023-02-27T20:39:18.711Z,101711.78
2023-02-27T20:41:47.192Z,101712.06
2023-02-27T20:44:14.491Z,101720.75
2023-02-27T20:46:43.767Z,101723.13
2023-02-27T20:49:15.708Z,101718.72
2023-02-27T20:51:44.497Z,101715.22
2023-02-27T20:54:20.509Z,101725.81
2023-02-27T20:56:52.275Z,101726.91
2023-02-27T20:59:21.358Z,101737.00
2023-02-27T21:01:52.006Z,101731.09
2023-02-27T21:04:24.153Z,101725.13
2023-02-27T21:06:52.230Z,101727.09
2023-02-27T21:09:19.410Z,101722.34
2023-02-27T21:11:46.538Z,101726.72
2023-02-27T21:14:14.570Z,101730.81
2023-02-27T21:16:41.702Z,101731.19
2023-02-27T21:19:08.987Z,101732.38
2023-02-27T21:21:37.768Z,101721.72
2023-02-27T21:24:06.176Z,101733.78
2023-02-27T21:26:39.578Z,101731.72
2023-02-27T21:29:24.766Z,101732.75
2023-02-27T21:31:52.860Z,101736.84
2023-02-27T21:34:26.933Z,101739.31
2023-02-27T21:36:55.225Z,101739.03
2023-02-27T21:39:26.192Z,101737.41
2023-02-27T21:41:53.754Z,101743.91
2023-02-27T21:44:25.166Z,101749.38
2023-02-27T21:46:54.136Z,101751.50
2023-02-27T21:49:28.827Z,101754.69
2023-02-27T21:51:55.947Z,101752.50
2023-02-27T21:54:23.733Z,101754.47
2023-02-27T21:56:50.931Z,101756.16
2023-02-27T21:59:20.917Z,101750.78
2023-02-27T22:01:48.709Z,101757.19
2023-02-27T22:04:19.108Z,101759.31
2023-02-27T22:06:47.744Z,101760.63
2023-02-27T22:09:14.826Z,101752.34
2023-02-27T22:11:42.441Z,101762.59
2023-02-27T22:14:11.543Z,101761.06
2023-02-27T22:16:39.578Z,101766.91
2023-02-27T22:19:09.228Z,101758.91
2023-02-27T22:21:37.932Z,101762.13
2023-02-27T22:24:06.389Z,101757.03
2023-02-27T22:26:34.009Z,101753.81
2023-02-27T22:29:01.781Z,101760.28
2023-02-27T22:31:35.369Z,101761.19
2023-02-27T22:34:12.949Z,101768.00
2023-02-27T22:36:41.758Z,101773.38
2023-02-27T22:39:10.159Z,101771.34
2023-02-27T22:41:40.629Z,101774.75
2023-02-27T22:44:12.077Z,101765.81
2023-02-27T22:46:43.915Z,101770.75
2023-02-27T22:49:19.557Z,101774.75
2023-02-27T22:51:50.731Z,101776.34
2023-02-27T22:54:20.478Z,101770.84
2023-02-27T22:56:51.856Z,101774.59
2023-02-27T22:59:19.624Z,101777.19
2023-02-27T23:01:48.177Z,101771.69
2023-02-27T23:04:17.165Z,101769.09
2023-02-27T23:06:45.037Z,101768.66
2023-02-27T23:09:19.570Z,101769.88
2023-02-27T23:11:46.770Z,101771.06
2023-02-27T23:14:15.693Z,101766.16
2023-02-27T23:16:46.777Z,101767.13
2023-02-27T23:19:20.823Z,101766.22
2023-02-27T23:21:48.080Z,101770.34
2023-02-27T23:24:18.593Z,101770.06
2023-02-27T23:26:51.707Z,101770.94
2023-02-27T23:29:19.636Z,101774.59
2023-02-27T23:31:46.816Z,101776.63
2023-02-27T23:34:14.085Z,101782.00
2023-02-27T23:36:41.213Z,101785.34
2023-02-27T23:39:08.686Z,101777.16
2023-02-27T23:41:36.085Z,101773.91
2023-02-27T23:44:22.292Z,101787.81
2023-02-27T23:46:49.847Z,101784.00
2023-02-27T23:49:16.971Z,101787.94
2023-02-27T23:51:44.140Z,101787.56
2023-02-27T23:54:11.169Z,101797.00
2023-02-27T23:56:38.324Z,101797.19
2023-02-27T23:59:06.735Z,101798.72
